Terminal Aerodrome Forecast
Issued by NWS Binghamton, NY

Home | Current Version | Previous Version | Text Only | Print | Product List | Glossary On
Versions: 1 2 3 4 5 6 7 8 9 10 11 12 13 14 15 16 17 18 19 20 21
000
FTUS41 KBGM 200635 AAA
TAFAVP
TAF AMD
KAVP 200635Z 2007/2106 33010KT P6SM -SHSN BKN035 OVC060
      TEMPO 2007/2009 2SM -SHSN BR BKN025
     FM201300 31014G24KT P6SM BKN035
     FM202000 32012G21KT P6SM SCT080
     FM210200 33006KT P6SM FEW090=

USA.gov is the U.S. government's official web portal to all federal, state and local government web resources and services.